Terminal Aerodrome Forecast
Issued by NWS

Current Version | Previous Version | Text Only | Print | Product List | Glossary On
Versions: 1 2 3 4 5 6 7 8 9 10 11 12 13 14
000
FTUS44 KTSA 262300
TAFXNA
TAF
KXNA 262320Z 2700/2724 35011KT P6SM FEW120
     FM270200 02011KT P6SM BKN040 BKN130
     FM271200 04010KT P6SM BKN030 BKN100
     FM271800 07005KT P6SM SCT050 OVC100=

USA.gov is the U.S. government's official web portal to all federal, state and local government web resources and services.